Time;durP1;ratioP1;P1;durP2;ratioP2;P2;SDS_P1;SDS_P2;PMS_P1;PMS_P2;Temp;Humidity;BMP_temperature;BMP_pressure;BME280_temperature;BME280_humidity;BME280_pressure;Samples;Min_cycle;Max_cycle;Signal;HPM_P1;HPM_P2
2023/01/19 00:00:57;;;;;;;8.37;6.13;;;3.00;99.90;;;;;;5021666;28;20198;-69
2023/01/19 00:03:24;;;;;;;9.50;5.77;;;3.00;99.90;;;;;;5037863;28;20205;-68
2023/01/19 00:05:51;;;;;;;9.13;5.70;;;3.10;99.90;;;;;;5031320;28;20694;-68
2023/01/19 00:08:18;;;;;;;10.80;5.83;;;3.10;99.90;;;;;;5033125;28;20222;-68
2023/01/19 00:10:47;;;;;;;9.03;5.30;;;3.10;99.90;;;;;;5029970;28;20651;-68
2023/01/19 00:13:14;;;;;;;9.20;5.87;;;3.10;99.90;;;;;;5010698;28;20236;-69
2023/01/19 00:15:43;;;;;;;7.33;5.43;;;3.10;99.90;;;;;;5035774;28;20210;-69
2023/01/19 00:18:10;;;;;;;8.10;5.07;;;3.10;99.90;;;;;;5026964;28;20209;-68
2023/01/19 00:20:36;;;;;;;9.87;6.07;;;3.10;99.90;;;;;;5042291;28;20251;-68
2023/01/19 00:23:04;;;;;;;11.90;6.13;;;3.10;99.90;;;;;;5037845;28;20208;-68
2023/01/19 00:25:30;;;;;;;10.60;5.63;;;3.10;99.90;;;;;;5048667;28;20205;-68
2023/01/19 00:27:57;;;;;;;13.47;6.27;;;3.10;99.90;;;;;;4997607;28;20204;-69
2023/01/19 00:30:24;;;;;;;10.20;6.10;;;3.10;99.90;;;;;;5008743;28;22120;-68
2023/01/19 00:32:52;;;;;;;15.27;6.00;;;3.10;99.90;;;;;;5014311;28;20201;-68
2023/01/19 00:35:19;;;;;;;7.10;5.50;;;3.10;99.90;;;;;;5039547;28;20247;-68
2023/01/19 00:37:46;;;;;;;11.77;5.47;;;3.10;99.90;;;;;;5034669;28;20205;-68
2023/01/19 00:40:13;;;;;;;11.07;6.07;;;3.10;99.90;;;;;;5016156;28;20229;-68
2023/01/19 00:42:42;;;;;;;9.97;5.83;;;3.10;99.90;;;;;;5023709;28;20211;-69
2023/01/19 00:45:11;;;;;;;8.07;5.80;;;3.10;99.90;;;;;;4991321;28;20296;-69
2023/01/19 00:47:39;;;;;;;13.03;6.43;;;3.10;99.90;;;;;;5033257;28;20196;-69
2023/01/19 00:50:10;;;;;;;10.07;5.90;;;3.10;99.90;;;;;;5043021;28;20208;-68
2023/01/19 00:52:37;;;;;;;8.23;6.13;;;3.10;99.90;;;;;;5028300;28;20755;-69
2023/01/19 00:55:04;;;;;;;8.67;5.63;;;3.10;99.90;;;;;;5028214;28;20209;-68
2023/01/19 00:57:31;;;;;;;8.63;6.00;;;3.10;99.90;;;;;;5041043;28;20196;-68
2023/01/19 00:59:58;;;;;;;8.07;5.87;;;3.10;99.90;;;;;;4999780;28;20272;-68
2023/01/19 01:02:25;;;;;;;8.83;6.37;;;3.10;99.90;;;;;;5017663;28;20204;-69
2023/01/19 01:04:53;;;;;;;13.50;6.30;;;3.10;99.90;;;;;;5045029;28;20203;-69
2023/01/19 01:07:22;;;;;;;9.90;6.90;;;3.10;99.90;;;;;;5042383;28;20201;-68
2023/01/19 01:09:49;;;;;;;15.00;7.53;;;3.10;99.90;;;;;;5029691;28;20197;-69
2023/01/19 01:12:16;;;;;;;10.77;6.97;;;3.00;99.90;;;;;;5037334;28;20199;-68
2023/01/19 01:14:43;;;;;;;13.77;7.30;;;3.00;99.90;;;;;;5001341;28;20208;-69
2023/01/19 01:17:10;;;;;;;11.97;7.40;;;3.00;99.90;;;;;;5026900;28;20238;-68
2023/01/19 01:19:37;;;;;;;12.73;7.40;;;3.10;99.90;;;;;;5026986;28;20236;-68
2023/01/19 01:22:04;;;;;;;10.97;6.97;;;3.00;99.90;;;;;;5042162;28;20199;-69
2023/01/19 01:24:32;;;;;;;12.40;6.43;;;3.10;99.90;;;;;;5039400;28;20223;-69
2023/01/19 01:26:59;;;;;;;12.57;7.00;;;3.10;99.90;;;;;;5037920;28;20207;-69
2023/01/19 01:29:26;;;;;;;13.90;7.40;;;3.00;99.90;;;;;;5010091;28;21099;-69
2023/01/19 01:31:52;;;;;;;9.83;6.63;;;3.10;99.90;;;;;;5029243;28;20354;-67
2023/01/19 01:34:19;;;;;;;10.93;6.63;;;3.00;99.90;;;;;;5034127;28;20224;-67
2023/01/19 01:36:46;;;;;;;10.60;6.97;;;3.10;99.90;;;;;;5045812;28;20857;-67
2023/01/19 01:39:13;;;;;;;10.53;7.07;;;3.10;99.90;;;;;;5046726;28;20832;-66
2023/01/19 01:41:41;;;;;;;9.33;6.93;;;3.10;99.90;;;;;;5037927;28;20204;-67
2023/01/19 01:44:48;;;;;;;10.27;7.10;;;3.10;99.90;;;;;;5040059;28;20197;-66
2023/01/19 01:47:16;;;;;;;11.17;7.27;;;3.10;99.90;;;;;;5020472;28;20318;-66
2023/01/19 01:49:43;;;;;;;10.27;7.13;;;3.00;99.90;;;;;;5032972;28;21012;-67
2023/01/19 01:52:11;;;;;;;10.90;6.90;;;3.10;99.90;;;;;;5032713;28;20931;-67
2023/01/19 01:54:38;;;;;;;9.60;7.40;;;3.10;99.90;;;;;;5045446;28;20199;-66
2023/01/19 01:57:11;;;;;;;9.57;7.20;;;3.10;99.90;;;;;;5035091;28;20199;-66
2023/01/19 01:59:41;;;;;;;10.43;7.03;;;3.10;99.90;;;;;;4996873;28;20896;-69
2023/01/19 02:04:59;;;;;;;11.50;7.13;;;3.10;99.90;;;;;;5024260;28;20259;-67
2023/01/19 02:13:20;;;;;;;12.10;7.97;;;3.10;99.90;;;;;;5017577;28;20256;-66
2023/01/19 02:15:48;;;;;;;13.20;7.70;;;3.10;99.90;;;;;;4991558;28;20275;-66
2023/01/19 02:18:15;;;;;;;10.93;7.23;;;3.10;99.90;;;;;;5027798;28;20289;-66
2023/01/19 02:20:48;;;;;;;12.50;7.60;;;3.10;99.90;;;;;;5028693;28;20579;-66
2023/01/19 02:23:20;;;;;;;10.27;7.87;;;3.10;99.90;;;;;;5035265;28;20205;-66
2023/01/19 02:25:49;;;;;;;9.57;7.57;;;3.10;99.90;;;;;;5042241;28;20201;-66
2023/01/19 02:28:17;;;;;;;11.43;7.20;;;3.10;99.90;;;;;;5042165;28;20207;-66
2023/01/19 02:30:44;;;;;;;8.97;7.30;;;3.10;99.90;;;;;;5007781;28;20236;-67
2023/01/19 02:33:11;;;;;;;10.60;7.37;;;3.10;99.90;;;;;;5037115;28;20228;-66
2023/01/19 02:35:40;;;;;;;13.00;7.23;;;3.10;99.90;;;;;;5031246;28;20213;-67
2023/01/19 02:38:08;;;;;;;10.10;7.40;;;3.10;99.90;;;;;;5030320;28;20585;-67
2023/01/19 02:40:37;;;;;;;9.70;8.13;;;3.10;99.90;;;;;;5046671;28;20228;-66
2023/01/19 02:43:07;;;;;;;13.17;8.97;;;3.00;99.90;;;;;;5038684;28;20244;-66
2023/01/19 02:45:36;;;;;;;11.93;7.90;;;3.00;99.90;;;;;;5020609;28;20201;-70
2023/01/19 02:48:04;;;;;;;9.30;7.60;;;3.10;99.90;;;;;;5029043;28;20581;-66
2023/01/19 02:50:42;;;;;;;11.10;7.33;;;3.10;99.90;;;;;;5028558;28;20251;-66
2023/01/19 02:53:33;;;;;;;10.63;8.03;;;3.10;99.90;;;;;;5026715;28;20639;-67
2023/01/19 02:56:14;;;;;;;11.20;8.17;;;3.00;99.90;;;;;;5036832;28;20499;-66
2023/01/19 02:58:50;;;;;;;8.87;7.27;;;3.10;99.90;;;;;;5042769;28;20566;-66
2023/01/19 03:01:23;;;;;;;10.13;7.80;;;3.10;99.90;;;;;;5002559;28;21249;-69
2023/01/19 03:03:56;;;;;;;14.57;8.13;;;3.10;99.90;;;;;;5027808;28;20196;-67
2023/01/19 03:06:35;;;;;;;9.23;7.43;;;3.10;99.90;;;;;;5027080;28;20342;-66
2023/01/19 03:09:10;;;;;;;10.77;7.67;;;3.10;99.90;;;;;;5026828;28;20201;-66
2023/01/19 03:11:43;;;;;;;10.17;8.30;;;3.10;99.90;;;;;;5043351;28;20198;-67
2023/01/19 03:14:14;;;;;;;9.43;7.67;;;3.10;99.90;;;;;;5030206;28;20357;-67
2023/01/19 03:16:46;;;;;;;16.23;8.63;;;3.10;99.90;;;;;;5003141;28;21557;-67
2023/01/19 03:19:19;;;;;;;10.10;8.00;;;3.10;99.90;;;;;;5019570;28;22564;-67
2023/01/19 03:21:49;;;;;;;11.47;8.73;;;3.10;99.90;;;;;;5044260;28;20197;-67
2023/01/19 03:24:20;;;;;;;12.33;9.53;;;3.10;99.90;;;;;;5031221;28;20208;-67
2023/01/19 03:26:51;;;;;;;10.67;8.70;;;3.10;99.90;;;;;;5045109;28;20689;-66
2023/01/19 03:29:22;;;;;;;11.80;9.27;;;3.10;99.90;;;;;;5046228;28;20794;-66
2023/01/19 03:31:50;;;;;;;11.13;8.57;;;3.10;99.90;;;;;;4999968;28;20215;-69
2023/01/19 03:34:20;;;;;;;11.93;9.07;;;3.10;99.90;;;;;;5039910;28;20233;-67
2023/01/19 03:36:52;;;;;;;12.27;9.47;;;3.10;99.90;;;;;;5011493;28;20955;-67
2023/01/19 03:39:24;;;;;;;11.03;8.80;;;3.10;99.90;;;;;;5035485;28;20204;-67
2023/01/19 03:41:55;;;;;;;12.00;9.50;;;3.00;99.90;;;;;;5043850;28;20200;-67
2023/01/19 03:44:24;;;;;;;12.83;9.63;;;3.00;99.90;;;;;;5042324;28;20217;-68
2023/01/19 03:46:51;;;;;;;12.00;8.73;;;3.00;99.90;;;;;;5019814;28;20995;-68
2023/01/19 03:49:18;;;;;;;10.53;8.37;;;3.00;99.90;;;;;;5012856;28;20226;-68
2023/01/19 03:51:45;;;;;;;14.27;8.30;;;3.10;99.90;;;;;;5030245;28;20205;-69
2023/01/19 03:54:12;;;;;;;10.67;8.50;;;3.00;99.90;;;;;;5027661;28;20205;-69
2023/01/19 03:56:39;;;;;;;11.97;8.50;;;3.00;99.90;;;;;;5042370;28;20227;-68
2023/01/19 03:59:06;;;;;;;11.87;8.43;;;3.00;99.90;;;;;;5028771;28;20868;-68
2023/01/19 04:01:34;;;;;;;12.13;8.07;;;3.00;99.90;;;;;;5037724;28;20232;-68
2023/01/19 04:04:01;;;;;;;11.37;8.33;;;3.00;99.90;;;;;;5013975;28;20200;-68
2023/01/19 04:06:28;;;;;;;11.73;8.87;;;3.00;99.90;;;;;;5029297;28;20232;-68
2023/01/19 04:08:55;;;;;;;12.67;9.17;;;3.00;99.90;;;;;;5022452;28;20220;-68
2023/01/19 04:11:22;;;;;;;13.47;9.97;;;3.00;99.90;;;;;;5032785;28;20189;-68
2023/01/19 04:13:49;;;;;;;13.40;8.70;;;3.10;99.90;;;;;;5044170;28;20194;-68
2023/01/19 04:16:18;;;;;;;12.13;7.73;;;3.00;99.90;;;;;;5028997;28;20206;-68
2023/01/19 04:18:47;;;;;;;9.13;7.33;;;3.00;99.90;;;;;;5003164;28;20219;-69
2023/01/19 04:21:14;;;;;;;13.13;8.30;;;3.10;99.90;;;;;;5032332;28;20229;-68
2023/01/19 04:23:43;;;;;;;11.67;8.50;;;3.00;99.90;;;;;;5027777;28;20624;-68
2023/01/19 04:26:10;;;;;;;10.07;8.17;;;3.00;99.90;;;;;;5025171;28;20205;-68
2023/01/19 04:28:37;;;;;;;11.87;8.63;;;3.00;99.90;;;;;;5026850;28;20213;-68
2023/01/19 04:31:05;;;;;;;11.37;9.03;;;3.00;99.90;;;;;;5030614;28;20201;-68
2023/01/19 04:33:32;;;;;;;9.80;8.27;;;3.00;99.90;;;;;;5027569;28;20713;-68
2023/01/19 04:36:00;;;;;;;11.57;9.40;;;3.00;99.90;;;;;;5005116;28;20209;-68
2023/01/19 04:38:27;;;;;;;13.47;8.57;;;3.00;99.90;;;;;;5034508;28;20204;-68
2023/01/19 04:40:54;;;;;;;11.57;8.73;;;3.00;99.90;;;;;;5033166;28;20324;-68
2023/01/19 04:43:22;;;;;;;11.37;8.90;;;3.00;99.90;;;;;;5029841;28;20226;-68
2023/01/19 04:45:50;;;;;;;12.03;8.60;;;3.00;99.90;;;;;;5027988;28;20311;-68
2023/01/19 04:48:18;;;;;;;12.13;9.07;;;3.00;99.90;;;;;;5037918;28;20219;-68
2023/01/19 04:50:45;;;;;;;11.13;8.57;;;3.00;99.90;;;;;;5010761;28;20205;-68
2023/01/19 04:53:15;;;;;;;10.27;8.23;;;3.00;99.90;;;;;;5032828;28;21026;-68
2023/01/19 04:55:41;;;;;;;10.30;8.40;;;3.00;99.90;;;;;;5030543;28;20221;-69
2023/01/19 04:58:08;;;;;;;13.30;9.30;;;3.00;99.90;;;;;;5038532;28;20223;-68
2023/01/19 05:00:35;;;;;;;12.17;8.60;;;3.00;99.90;;;;;;5036274;28;20232;-68
2023/01/19 05:03:03;;;;;;;10.77;8.07;;;3.00;99.90;;;;;;5031301;28;20204;-68
2023/01/19 05:05:31;;;;;;;11.10;8.33;;;3.00;99.90;;;;;;5011709;28;20205;-68
2023/01/19 05:07:58;;;;;;;12.00;9.13;;;2.90;99.90;;;;;;5035628;28;20297;-68
2023/01/19 05:10:26;;;;;;;12.63;10.17;;;3.00;99.90;;;;;;5029192;28;20208;-69
2023/01/19 05:12:53;;;;;;;13.33;9.20;;;2.90;99.90;;;;;;5044559;28;20197;-68
2023/01/19 05:15:20;;;;;;;13.70;9.40;;;2.90;99.90;;;;;;5030961;28;20202;-68
2023/01/19 05:17:47;;;;;;;19.10;10.27;;;2.90;99.90;;;;;;5031200;28;20223;-68
2023/01/19 05:20:14;;;;;;;12.63;9.57;;;2.90;99.90;;;;;;5008348;28;20292;-68
2023/01/19 05:22:41;;;;;;;13.43;10.20;;;2.90;99.90;;;;;;5016789;28;20581;-68
2023/01/19 05:25:09;;;;;;;11.00;8.60;;;2.90;99.90;;;;;;5025045;28;20864;-68
2023/01/19 05:27:37;;;;;;;12.90;9.67;;;2.90;99.90;;;;;;5024621;28;20882;-68
2023/01/19 05:30:05;;;;;;;12.60;8.83;;;2.90;99.90;;;;;;5043290;28;20217;-68
2023/01/19 05:32:32;;;;;;;12.00;9.47;;;2.90;99.90;;;;;;5019912;28;20204;-68
2023/01/19 05:34:59;;;;;;;11.90;8.80;;;2.90;99.90;;;;;;5034353;28;20205;-68
2023/01/19 05:37:26;;;;;;;15.37;10.07;;;2.90;99.90;;;;;;4998275;28;20207;-68
2023/01/19 05:39:53;;;;;;;15.53;10.83;;;2.90;99.90;;;;;;5025769;28;20230;-68
2023/01/19 05:42:20;;;;;;;12.07;9.13;;;2.90;99.90;;;;;;5023251;28;20230;-68
2023/01/19 05:44:48;;;;;;;14.60;10.10;;;2.90;99.90;;;;;;5041310;28;20237;-69
2023/01/19 05:47:15;;;;;;;13.30;9.40;;;2.90;99.90;;;;;;5033765;28;20695;-68
2023/01/19 05:49:42;;;;;;;14.33;10.53;;;2.90;99.90;;;;;;5024608;28;20550;-68
2023/01/19 05:52:08;;;;;;;15.57;10.43;;;2.90;99.90;;;;;;5009041;28;20212;-68
2023/01/19 05:54:35;;;;;;;16.73;9.80;;;2.90;99.90;;;;;;5013905;28;20695;-68
2023/01/19 05:57:03;;;;;;;15.20;9.67;;;2.90;99.90;;;;;;5028674;28;20207;-68
2023/01/19 05:59:30;;;;;;;17.00;10.37;;;2.90;99.90;;;;;;5017820;28;20227;-68
2023/01/19 06:01:58;;;;;;;13.77;9.90;;;2.90;99.90;;;;;;5028278;28;20263;-68
2023/01/19 06:04:25;;;;;;;14.23;9.90;;;2.90;99.90;;;;;;5029429;28;20204;-68
2023/01/19 06:06:52;;;;;;;12.17;9.67;;;2.90;99.90;;;;;;5027042;28;20203;-68
2023/01/19 06:09:19;;;;;;;15.27;10.17;;;2.90;99.90;;;;;;5005937;28;20209;-68
2023/01/19 06:11:46;;;;;;;15.33;9.73;;;2.90;99.90;;;;;;5021788;28;20227;-68
2023/01/19 06:14:13;;;;;;;19.67;10.63;;;2.90;99.90;;;;;;5015406;28;20240;-69
2023/01/19 06:16:40;;;;;;;15.03;9.67;;;3.00;99.90;;;;;;5014047;28;20238;-68
2023/01/19 06:19:08;;;;;;;15.20;9.87;;;2.90;99.90;;;;;;5037194;28;20212;-68
2023/01/19 06:21:35;;;;;;;14.17;10.37;;;3.00;99.90;;;;;;5017645;28;20246;-67
2023/01/19 06:24:02;;;;;;;13.33;9.20;;;2.90;99.90;;;;;;5013232;28;20225;-67
2023/01/19 06:26:29;;;;;;;14.07;9.83;;;3.00;99.90;;;;;;5034340;28;20608;-67
2023/01/19 06:28:56;;;;;;;14.53;10.17;;;2.90;99.90;;;;;;5022764;28;20243;-67
2023/01/19 06:31:22;;;;;;;15.67;9.80;;;2.90;99.90;;;;;;5035999;28;20195;-67
2023/01/19 06:33:50;;;;;;;17.20;10.43;;;2.90;99.90;;;;;;5022891;28;20221;-67
2023/01/19 06:36:18;;;;;;;16.27;11.13;;;3.00;99.90;;;;;;5024030;28;20228;-67
2023/01/19 06:38:45;;;;;;;13.83;9.73;;;3.00;99.90;;;;;;5013417;28;20212;-67
2023/01/19 06:41:12;;;;;;;17.47;9.83;;;2.90;99.90;;;;;;5039476;28;20231;-67
2023/01/19 06:43:38;;;;;;;15.43;10.77;;;2.90;99.90;;;;;;5033884;28;20717;-67
2023/01/19 06:46:05;;;;;;;16.77;10.23;;;2.90;99.90;;;;;;5042463;28;20204;-67
2023/01/19 06:48:32;;;;;;;20.37;10.97;;;3.00;99.90;;;;;;5021270;28;20224;-67
2023/01/19 06:51:00;;;;;;;13.77;10.30;;;3.10;99.90;;;;;;5030047;28;20209;-67
2023/01/19 06:53:29;;;;;;;15.70;10.13;;;3.10;99.90;;;;;;5018871;28;20817;-67
2023/01/19 06:55:59;;;;;;;13.63;9.83;;;3.10;99.90;;;;;;5031003;28;20976;-67
2023/01/19 06:58:26;;;;;;;15.07;9.90;;;3.00;99.90;;;;;;5031601;28;20202;-67
2023/01/19 07:00:53;;;;;;;14.03;10.77;;;3.00;99.90;;;;;;5038619;28;20718;-67
2023/01/19 07:03:21;;;;;;;14.63;10.70;;;3.00;99.90;;;;;;5032237;28;20213;-67
2023/01/19 07:05:51;;;;;;;17.33;10.87;;;3.00;99.90;;;;;;5014898;28;20372;-67
2023/01/19 07:08:18;;;;;;;18.13;10.20;;;3.00;99.90;;;;;;5003376;28;20205;-66
2023/01/19 07:10:46;;;;;;;15.40;10.90;;;3.00;99.90;;;;;;5006782;28;20950;-67
2023/01/19 07:13:13;;;;;;;15.00;10.47;;;3.00;99.90;;;;;;5029273;28;20201;-67
2023/01/19 07:15:40;;;;;;;15.70;10.47;;;3.00;99.90;;;;;;5025321;28;20215;-67
2023/01/19 07:18:08;;;;;;;15.50;10.37;;;3.10;99.90;;;;;;5049890;28;20212;-67
2023/01/19 07:20:35;;;;;;;17.43;11.00;;;3.00;99.90;;;;;;5026906;28;20205;-67
2023/01/19 07:23:02;;;;;;;15.00;10.57;;;3.00;99.90;;;;;;5045670;28;20205;-67
2023/01/19 07:25:30;;;;;;;14.50;11.17;;;3.00;99.90;;;;;;5007807;28;20209;-67
2023/01/19 07:27:59;;;;;;;17.00;10.63;;;3.00;99.90;;;;;;5032701;28;20219;-67
2023/01/19 07:30:26;;;;;;;17.97;10.97;;;3.10;99.90;;;;;;5022741;28;20220;-67
2023/01/19 07:32:56;;;;;;;13.57;9.77;;;3.00;99.90;;;;;;5037612;28;21311;-67
2023/01/19 07:35:23;;;;;;;14.60;9.67;;;3.00;99.90;;;;;;5040317;28;20211;-67
2023/01/19 07:37:49;;;;;;;14.90;10.10;;;3.00;99.90;;;;;;5034751;28;20204;-67
2023/01/19 07:40:16;;;;;;;12.03;8.70;;;3.20;99.90;;;;;;5009102;28;20229;-67
2023/01/19 07:42:47;;;;;;;12.53;9.27;;;3.00;99.90;;;;;;5024225;28;20229;-66
2023/01/19 07:45:15;;;;;;;12.00;8.83;;;3.00;99.90;;;;;;5029765;28;20206;-67
2023/01/19 07:47:43;;;;;;;11.03;8.83;;;3.00;99.90;;;;;;5038744;28;20250;-67
2023/01/19 07:50:12;;;;;;;12.23;9.43;;;3.10;99.90;;;;;;5040715;28;20220;-67
2023/01/19 07:52:38;;;;;;;15.60;10.07;;;3.00;99.90;;;;;;5031432;28;20729;-67
2023/01/19 07:55:06;;;;;;;13.90;9.43;;;3.00;99.90;;;;;;5012399;28;20209;-67
2023/01/19 07:57:33;;;;;;;14.37;10.50;;;3.00;99.90;;;;;;5042825;28;20201;-67
2023/01/19 08:00:00;;;;;;;14.93;10.23;;;3.00;99.90;;;;;;5024250;28;20300;-67
2023/01/19 08:02:29;;;;;;;15.30;10.70;;;3.00;99.90;;;;;;5044094;28;20220;-67
2023/01/19 08:04:56;;;;;;;12.67;9.73;;;3.10;99.90;;;;;;5028315;28;20200;-68
2023/01/19 08:07:22;;;;;;;14.60;10.13;;;3.00;99.90;;;;;;5024506;28;20205;-67
2023/01/19 08:09:49;;;;;;;16.53;9.83;;;3.10;99.90;;;;;;5017367;28;23257;-67
2023/01/19 08:12:17;;;;;;;17.07;10.13;;;3.10;99.90;;;;;;5041657;28;20205;-67
2023/01/19 08:14:43;;;;;;;13.70;9.80;;;3.10;99.90;;;;;;5031852;28;20702;-67
2023/01/19 08:17:13;;;;;;;16.50;10.43;;;3.30;99.90;;;;;;5030959;28;20201;-67
2023/01/19 08:19:42;;;;;;;13.67;8.57;;;3.10;99.90;;;;;;5041259;28;20886;-68
2023/01/19 08:22:09;;;;;;;11.77;9.13;;;3.10;99.90;;;;;;5049264;28;20240;-68
2023/01/19 08:24:36;;;;;;;12.53;9.57;;;3.20;99.90;;;;;;5024162;28;20228;-67
2023/01/19 08:27:03;;;;;;;13.43;9.30;;;3.10;99.90;;;;;;5005629;28;20981;-67
2023/01/19 08:29:30;;;;;;;18.43;9.83;;;3.20;99.90;;;;;;5042475;28;20317;-67
2023/01/19 08:31:59;;;;;;;12.53;9.27;;;3.30;99.90;;;;;;5004072;28;20232;-67
2023/01/19 08:34:26;;;;;;;13.93;9.63;;;3.20;99.90;;;;;;5030851;28;20316;-68
2023/01/19 08:36:55;;;;;;;16.33;9.30;;;3.20;99.90;;;;;;5041982;28;20256;-67
2023/01/19 08:39:22;;;;;;;16.37;8.57;;;3.20;99.90;;;;;;5030874;28;20201;-68
2023/01/19 08:41:49;;;;;;;14.33;9.10;;;3.20;99.90;;;;;;5013110;28;20239;-68
2023/01/19 08:44:16;;;;;;;12.97;9.43;;;3.30;99.90;;;;;;5025843;28;20219;-68
2023/01/19 08:46:43;;;;;;;11.23;9.13;;;3.20;99.90;;;;;;5023342;28;20201;-67
2023/01/19 08:49:10;;;;;;;13.93;9.03;;;3.30;99.90;;;;;;5028871;28;20228;-67
2023/01/19 08:51:38;;;;;;;11.90;9.33;;;3.20;99.90;;;;;;5035235;28;20228;-67
2023/01/19 08:54:06;;;;;;;13.27;9.13;;;3.30;99.90;;;;;;5034138;28;20204;-68
2023/01/19 08:56:33;;;;;;;14.70;10.03;;;3.30;99.90;;;;;;5026540;28;20209;-68
2023/01/19 08:58:59;;;;;;;10.73;8.20;;;3.30;99.90;;;;;;5012508;28;20196;-67
2023/01/19 09:01:26;;;;;;;11.30;8.10;;;3.30;99.90;;;;;;5025101;28;20227;-69
2023/01/19 09:03:54;;;;;;;11.93;8.33;;;3.40;99.90;;;;;;5019992;28;20328;-68
2023/01/19 09:06:23;;;;;;;13.07;8.13;;;3.40;99.90;;;;;;5032387;28;21146;-68
2023/01/19 09:08:49;;;;;;;10.70;8.37;;;3.40;99.90;;;;;;5031484;28;20669;-69
2023/01/19 09:11:18;;;;;;;12.83;9.10;;;3.40;99.90;;;;;;5024320;28;20209;-68
2023/01/19 09:13:45;;;;;;;13.63;8.93;;;3.40;99.90;;;;;;5012316;28;20223;-68
2023/01/19 09:16:14;;;;;;;13.77;8.50;;;3.40;99.90;;;;;;5007348;28;20255;-68
2023/01/19 09:18:40;;;;;;;14.67;8.30;;;3.40;99.90;;;;;;5011610;28;20212;-68
2023/01/19 09:21:08;;;;;;;14.27;9.00;;;3.40;99.90;;;;;;5025546;28;20399;-68
2023/01/19 09:23:35;;;;;;;10.73;7.80;;;3.50;99.90;;;;;;5034706;28;20222;-68
2023/01/19 09:26:04;;;;;;;12.03;8.70;;;3.40;99.90;;;;;;5028122;28;20915;-68
2023/01/19 09:28:32;;;;;;;12.43;8.03;;;3.40;99.90;;;;;;5040904;28;20206;-68
2023/01/19 09:30:59;;;;;;;10.63;7.73;;;3.40;99.90;;;;;;4998216;28;20204;-68
2023/01/19 09:33:26;;;;;;;12.83;8.17;;;3.50;99.90;;;;;;5025030;28;20240;-69
2023/01/19 09:35:53;;;;;;;13.80;8.50;;;3.40;99.90;;;;;;5032423;28;20209;-68
2023/01/19 09:38:21;;;;;;;12.73;7.73;;;3.50;99.90;;;;;;5024632;28;20197;-68
2023/01/19 09:40:50;;;;;;;12.87;8.50;;;3.50;99.90;;;;;;5022499;28;20671;-68
2023/01/19 09:43:28;;;;;;;11.90;7.97;;;3.60;99.90;;;;;;5041065;28;20235;-68
2023/01/19 09:45:58;;;;;;;11.43;8.43;;;3.60;99.90;;;;;;5004487;28;20622;-68
2023/01/19 09:48:42;;;;;;;13.53;7.80;;;3.60;99.90;;;;;;5039589;28;20796;-68
2023/01/19 09:51:15;;;;;;;10.53;7.53;;;3.60;99.90;;;;;;5035364;28;21098;-68
2023/01/19 09:53:51;;;;;;;13.13;8.40;;;3.60;99.90;;;;;;5047914;28;20192;-68
2023/01/19 09:56:20;;;;;;;11.03;8.07;;;3.70;99.90;;;;;;5041131;28;21115;-69
2023/01/19 09:58:48;;;;;;;11.00;7.77;;;3.70;99.90;;;;;;5022550;28;20208;-69
2023/01/19 10:01:29;;;;;;;14.23;8.17;;;3.70;99.90;;;;;;5043892;28;20217;-67
2023/01/19 10:04:23;;;;;;;15.03;7.87;;;3.80;99.90;;;;;;4995406;28;20205;-68
2023/01/19 10:06:53;;;;;;;12.83;7.40;;;3.70;99.90;;;;;;5035304;28;20209;-68
2023/01/19 10:09:30;;;;;;;10.80;7.50;;;3.80;99.90;;;;;;5034851;28;20205;-68
2023/01/19 10:12:01;;;;;;;10.40;7.23;;;3.90;99.90;;;;;;5038357;28;20751;-67
2023/01/19 10:14:34;;;;;;;12.30;7.83;;;3.80;99.90;;;;;;5035338;28;20205;-68
2023/01/19 10:17:10;;;;;;;10.67;7.47;;;3.90;99.90;;;;;;5032886;28;20697;-69
2023/01/19 10:19:43;;;;;;;9.83;7.47;;;3.90;99.90;;;;;;5017666;28;20293;-68
2023/01/19 10:22:20;;;;;;;9.47;6.80;;;3.90;99.90;;;;;;5041437;28;20231;-68
2023/01/19 10:24:52;;;;;;;10.70;6.30;;;3.80;99.90;;;;;;5040646;28;20278;-69
2023/01/19 10:27:23;;;;;;;10.33;7.07;;;3.90;99.90;;;;;;5044033;28;20215;-68
2023/01/19 10:29:50;;;;;;;10.80;6.40;;;3.80;99.90;;;;;;5016965;28;20609;-69
2023/01/19 10:32:22;;;;;;;13.17;7.07;;;3.90;99.90;;;;;;5040218;28;20277;-69
2023/01/19 10:34:50;;;;;;;8.53;5.60;;;3.90;99.90;;;;;;5001907;28;20239;-69
2023/01/19 10:37:27;;;;;;;9.60;5.20;;;3.90;99.90;;;;;;5044006;28;20201;-68
2023/01/19 10:39:55;;;;;;;8.13;4.97;;;3.90;99.90;;;;;;5040496;28;20209;-68
2023/01/19 10:42:22;;;;;;;5.63;4.67;;;4.00;99.90;;;;;;5044460;28;20232;-69
2023/01/19 10:44:50;;;;;;;7.23;4.63;;;4.00;99.90;;;;;;5026599;28;20211;-69
2023/01/19 10:47:20;;;;;;;7.13;4.00;;;4.10;99.90;;;;;;5040627;28;20223;-69
2023/01/19 10:49:48;;;;;;;9.20;4.60;;;4.10;99.90;;;;;;5011792;28;21200;-69
2023/01/19 10:52:24;;;;;;;7.67;4.00;;;4.10;99.90;;;;;;5040707;28;20685;-69
2023/01/19 10:54:51;;;;;;;8.07;3.93;;;4.10;99.90;;;;;;5046923;28;20205;-69
2023/01/19 10:57:28;;;;;;;5.77;3.87;;;4.10;99.90;;;;;;5048679;28;20212;-69
2023/01/19 10:59:54;;;;;;;5.10;3.50;;;4.20;99.90;;;;;;5032392;28;20227;-69
2023/01/19 11:02:25;;;;;;;6.87;3.90;;;4.20;99.90;;;;;;5050162;28;20810;-69
2023/01/19 11:04:54;;;;;;;6.83;3.07;;;4.20;99.90;;;;;;5011526;28;20247;-69
2023/01/19 11:07:22;;;;;;;4.37;2.87;;;4.30;99.90;;;;;;5031751;28;20209;-68
2023/01/19 11:09:50;;;;;;;5.07;2.27;;;4.30;99.90;;;;;;5044346;28;20199;-68
2023/01/19 11:12:19;;;;;;;6.87;2.67;;;4.30;99.90;;;;;;5041290;28;20201;-68
2023/01/19 11:14:47;;;;;;;7.27;2.13;;;4.40;99.90;;;;;;5030886;28;20394;-68
2023/01/19 11:17:20;;;;;;;8.30;1.83;;;4.40;99.90;;;;;;5047915;28;20212;-68
2023/01/19 11:19:56;;;;;;;1.77;1.17;;;4.50;99.90;;;;;;5013197;28;20213;-69
2023/01/19 11:22:27;;;;;;;6.87;1.53;;;4.50;99.90;;;;;;5033514;28;20252;-69
2023/01/19 11:24:58;;;;;;;5.27;1.37;;;4.50;99.90;;;;;;5049939;28;20225;-68
2023/01/19 11:27:26;;;;;;;3.87;1.37;;;4.50;99.90;;;;;;5044194;28;20204;-68
2023/01/19 11:30:01;;;;;;;2.83;1.23;;;4.50;99.90;;;;;;5030596;28;20192;-69
2023/01/19 11:32:28;;;;;;;10.93;1.10;;;4.50;99.90;;;;;;5044503;28;20223;-69
2023/01/19 11:34:56;;;;;;;1.67;1.03;;;4.50;99.90;;;;;;5039752;28;20248;-69
2023/01/19 11:37:30;;;;;;;7.13;1.30;;;4.60;99.90;;;;;;5007775;28;20223;-69
2023/01/19 11:39:58;;;;;;;1.80;0.80;;;4.60;99.90;;;;;;5034816;28;20311;-68
2023/01/19 11:42:27;;;;;;;4.03;1.00;;;4.60;99.90;;;;;;5044106;28;20390;-69
2023/01/19 11:45:02;;;;;;;1.70;0.80;;;4.60;99.90;;;;;;5043886;28;20209;-68
2023/01/19 11:47:35;;;;;;;4.07;1.50;;;4.60;99.90;;;;;;5036774;28;20208;-69
2023/01/19 11:50:11;;;;;;;4.67;1.27;;;4.60;99.90;;;;;;5046416;28;20546;-69
2023/01/19 11:52:43;;;;;;;2.20;1.10;;;4.60;99.90;;;;;;5015499;28;20204;-69
2023/01/19 11:55:17;;;;;;;6.87;1.27;;;4.60;99.90;;;;;;5041541;28;20207;-69
2023/01/19 11:57:46;;;;;;;4.93;1.23;;;4.60;99.90;;;;;;5044457;28;20204;-69
2023/01/19 12:00:23;;;;;;;5.50;1.53;;;4.60;99.90;;;;;;5045373;28;20196;-67
2023/01/19 12:02:55;;;;;;;6.43;1.40;;;4.60;99.90;;;;;;5041607;28;20327;-69
2023/01/19 12:05:32;;;;;;;6.93;1.23;;;4.70;99.90;;;;;;5039234;28;20200;-69
2023/01/19 12:08:02;;;;;;;7.20;1.90;;;4.70;99.90;;;;;;5015974;28;20515;-69
2023/01/19 12:10:31;;;;;;;5.70;1.90;;;4.70;99.90;;;;;;5041996;28;20196;-69
2023/01/19 12:12:59;;;;;;;8.33;2.53;;;4.70;99.90;;;;;;5042588;28;20216;-69
2023/01/19 12:15:30;;;;;;;11.33;2.27;;;4.80;99.90;;;;;;5046155;28;20211;-69
2023/01/19 12:18:00;;;;;;;6.03;2.10;;;4.80;99.90;;;;;;5028713;28;20657;-69
2023/01/19 12:20:33;;;;;;;10.13;2.13;;;4.80;99.90;;;;;;5048358;28;20196;-69
2023/01/19 12:23:11;;;;;;;5.77;1.97;;;4.80;99.90;;;;;;5014614;28;21153;-69
2023/01/19 12:25:53;;;;;;;4.33;2.00;;;4.90;99.90;;;;;;5048142;28;20201;-69
2023/01/19 12:28:23;;;;;;;11.83;2.10;;;4.90;99.90;;;;;;5049200;28;20201;-69
2023/01/19 12:30:51;;;;;;;5.73;1.90;;;4.90;99.90;;;;;;5022865;28;21008;-69
2023/01/19 12:33:34;;;;;;;2.20;1.47;;;4.90;99.90;;;;;;5028876;28;20229;-68
2023/01/19 12:36:06;;;;;;;7.13;2.00;;;5.00;99.90;;;;;;5030592;28;20211;-69
2023/01/19 12:38:48;;;;;;;3.10;1.70;;;5.00;99.90;;;;;;5014944;28;20222;-68
2023/01/19 12:41:24;;;;;;;9.37;1.63;;;5.10;99.90;;;;;;5048169;28;20234;-69
2023/01/19 12:44:18;;;;;;;7.97;1.40;;;5.10;99.90;;;;;;5037151;28;20263;-69
2023/01/19 12:46:46;;;;;;;5.90;1.93;;;5.30;99.90;;;;;;5040902;28;20192;-68
2023/01/19 12:49:22;;;;;;;9.33;1.70;;;5.30;99.90;;;;;;5035307;28;20837;-69
2023/01/19 12:51:52;;;;;;;8.33;1.73;;;5.40;99.90;;;;;;5041215;28;20212;-69
2023/01/19 12:54:25;;;;;;;4.70;1.10;;;5.40;99.90;;;;;;5007929;28;20230;-69
2023/01/19 12:56:58;;;;;;;13.43;1.50;;;5.40;99.90;;;;;;5037697;28;20212;-69
2023/01/19 12:59:26;;;;;;;4.43;1.40;;;5.40;99.90;;;;;;5013761;28;20236;-69
2023/01/19 13:02:45;;;;;;;7.10;1.70;;;5.40;99.90;;;;;;5043355;28;20201;-68
2023/01/19 13:05:24;;;;;;;2.93;1.20;;;5.40;99.90;;;;;;4980115;28;20214;-69
2023/01/19 13:08:18;;;;;;;3.27;1.50;;;5.50;99.90;;;;;;5001363;28;20298;-68